Wednesday, January 17, 2018, 6:28 AM EST
Back to Local

KWRI, Mcguire Air Force Base

Location: Trenton, NJ, United States Lat: 40.017
Local Time: 6:28 AM EST (11:28 GMT) Lon: -74.6
Time Zone: US/Eastern Elev: 134 ft

Show me the last for .
Show Decoded

2018-01-17 05:56 METAR KWRI 171056Z AUTO 34005KT 8SM -RA OVC004 01/01 A3024 RMK AO2 CIG 003 RWY18
                 SLP241 P0002 T00110005 $ =
2018-01-17 05:11 METAR KWRI 171011Z AUTO 33005KT 7SM -RA OVC004 01/01 A3022 RMK AO2 CIG 004V006
                 SLP234 $ =
2018-01-17 04:56 METAR KWRI 170956Z AUTO 35003KT 6SM -RA BR OVC006 01/00 A3022 RMK AO2 CIG 005
                 RWY06 SLP234 P0004 T00110004 $ =
2018-01-17 04:01 METAR KWRI 170901Z 01005KT 8SM -RA OVC006 01/01 A3022 RMK AO2A CIG 005 RWY06
                 SLP234 $ =
2018-01-17 03:56 METAR KWRI 170856Z 01005KT 8SM -RA OVC005 01/01 A3022 RMK AO2A CIG 002 RWY18
                 SLP234 P0004 60004 T00130006 57010 $ =
2018-01-17 03:46 METAR KWRI 170846Z 35004KT 7SM -RA OVC005 01/00 A3023 RMK AO2A CIG 003 RWY18
                 SLP238 $ =
2018-01-17 03:21 METAR KWRI 170821Z 34005KT 8SM RA OVC006 01/00 A3023 RMK AO2A CIG 005 RWY06 CIG
                 005 RWY18 SLP238 $ =
2018-01-17 02:56 METAR KWRI 170756Z 33006KT 9SM -RA OVC007 02/01 A3024 RMK AO2A RAB09 SLP241
                 P0000 T00150005 $ =
2018-01-17 02:39 METAR KWRI 170739Z 34006KT 10SM -RA OVC007 02/01 A3024 RMK AO2A RAB09 SLP241 $ =
2018-01-17 02:09 METAR KWRI 170709Z COR 02003KT 10SM -RA BKN008 OVC028 02/01 A3024 RMK AO2A RAB09
                 SLP241 $ COR 0711 =
2018-01-17 01:56 METAR KWRI 170656Z AUTO 00000KT 10SM BKN008 OVC029 02/01 A3024 RMK AO2 SLP241
                 T00230010 $ =
2018-01-17 01:50 METAR KWRI 170650Z AUTO 00000KT 10SM BKN008 OVC029 02/01 A3025 RMK AO2 CIG
                 008V029 SLP244 $ =
2018-01-17 01:35 METAR KWRI 170635Z AUTO 36003KT 10SM SCT009 OVC028 02/01 A3025 RMK AO2 CIG
                 009V028 CIG 008 RWY06 CIG 008 RWY18 SLP244 $ =
2018-01-17 01:30 METAR KWRI 170630Z AUTO 36003KT 10SM BKN009 OVC028 02/01 A3025 RMK AO2 CIG
                 009V029 BKN V SCT CIG 008 RWY06 SLP244 $ =
2018-01-17 01:00 METAR KWRI 170600Z AUTO 00000KT 10SM FEW010 OVC029 02/01 A3025 RMK AO2 CIG 028
                 RWY06 CIG 028 RWY18 SLP244 $ =
2018-01-17 00:56 METAR KWRI 170556Z AUTO 00000KT 10SM OVC030 02/00 A3025 RMK AO2 SLP244 T00170004
                 10026 21004 57020 $ =
2018-01-16 23:56 METAR KWRI 170456Z AUTO 00000KT 10SM FEW009 OVC120 01/00 A3028 RMK AO2 SLP255
                 T00121001 400791038 $ =
2018-01-16 23:42 METAR KWRI 170442Z AUTO 00000KT 10SM SCT009 OVC130 01/00 A3028 RMK AO2 SLP255 $
                 =
2018-01-16 23:32 METAR KWRI 170432Z AUTO 00000KT 10SM BKN009 BKN130 01/00 A3028 RMK AO2 CIG
                 009V130 BKN009 V FEW SLP255 $ =
2018-01-16 23:22 METAR KWRI 170422Z AUTO 08003KT 10SM FEW009 FEW041 BKN130 01/00 A3029 RMK AO2
                 SLP258 $ =
2018-01-16 22:56 METAR KWRI 170356Z AUTO 08003KT 10SM SCT041 01/00 A3030 RMK AO2 SLP261 T00131003
                 $ =
2018-01-16 22:21 METAR KWRI 170321Z AUTO 10003KT 10SM BKN030 BKN037 BKN150 02/00 A3031 RMK AO2
                 SLP265 $ =
2018-01-16 22:11 METAR KWRI 170311Z AUTO 00000KT 10SM BKN029 BKN039 01/00 A3032 RMK AO2 CIG
                 029V040 BKN029 V SCT SLP268 $ =
2018-01-16 21:56 METAR KWRI 170256Z AUTO 06003KT 10SM FEW030 BKN040 01/00 A3032 RMK AO2 SLP268
                 T00131005 57016 $ =
2018-01-16 20:56 METAR KWRI 170156Z AUTO 11006KT 10SM BKN036 OVC180 02/00 A3033 RMK AO2 SLP272
                 T00240000 $ =
2018-01-16 19:56 METAR KWRI 170056Z AUTO 00000KT 10SM BKN032 00/M01 A3034 RMK AO2 SLP275
                 T00041011 $ =
2018-01-16 18:56 METAR KWRI 162356Z AUTO 00000KT 10SM CLR 01/M01 A3036 RMK AO2 SLP282 T00051014
                 10079 20005 53004 $ =
2018-01-16 17:56 METAR KWRI 162256Z AUTO 09003KT 10SM CLR 02/M01 A3035 RMK AO2 SLP279 T00221007 $
                 =
2018-01-16 16:56 METAR KWRI 162156Z AUTO 12006KT 10SM CLR 04/00 A3035 RMK AO2 SLP279 T00351003 $
                 =
2018-01-16 15:56 METAR KWRI 162056Z AUTO 13007KT 10SM FEW037 05/00 A3035 RMK AO2 SLP279 T00480000
                 57010 $ =
2018-01-16 14:56 METAR KWRI 161956Z AUTO 16008KT 10SM OVC036 06/00 A3036 RMK AO2 SLP282 T00621003
                 $ =
2018-01-16 13:56 METAR KWRI 161856Z AUTO 14006KT 10SM OVC035 08/M01 A3037 RMK AO2 SLP285
                 T00781007 $ =
2018-01-16 13:01 METAR KWRI 161801Z AUTO 12007KT 10SM BKN030 07/M01 A3038 RMK AO2 SLP289 $ =
2018-01-16 12:56 METAR KWRI 161756Z AUTO 00000KT 10SM BKN029 BKN070 07/M01 A3038 RMK AO2 CIG
                 029V070 BKN029 V SCT SLP289 T00691013 10069 21028 57027 $ =
2018-01-16 12:51 METAR KWRI 161751Z AUTO 15005KT 10SM BKN029 BKN070 07/M01 A3038 RMK AO2 CIG
                 029V070 BKN029 V SCT SLP289 $ =
2018-01-16 11:56 METAR KWRI 161656Z AUTO 18006KT 10SM SCT026 SCT065 BKN160 06/M01 A3041 RMK AO2
                 SLP299 T00551010 $ =
2018-01-16 11:01 METAR KWRI 161601Z AUTO 12005KT 10SM SCT028 BKN065 04/M01 A3045 RMK AO2 SLP312 $
                 =
2018-01-16 10:56 METAR KWRI 161556Z AUTO 12005KT 10SM BKN029 03/M02 A3045 RMK AO2 SLP313
                 T00341016 $ =
2018-01-16 10:41 METAR KWRI 161541Z AUTO 10003KT 10SM OVC029 03/M02 A3045 RMK AO2 CIG 028 RWY18
                 SLP313 $ =
2018-01-16 09:56 METAR KWRI 161456Z AUTO 12005KT 10SM OVC030 00/M03 A3046 RMK AO2 SLP316
                 T00031027 50000 $ =
2018-01-16 09:06 METAR KWRI 161406Z AUTO 10005KT 10SM OVC030 M01/M04 A3047 RMK AO2 SLP320 $ =
2018-01-16 08:56 METAR KWRI 161356Z AUTO 08003KT 10SM OVC029 M01/M04 A3047 RMK AO2 SLP320
                 T10131041 $ =
2018-01-16 07:56 METAR KWRI 161256Z AUTO 03003KT 10SM OVC031 M02/M05 A3048 RMK AO2 SLP323
                 T10221049 $ =
2018-01-16 06:56 METAR KWRI 161156Z AUTO 10003KT 10SM OVC031 M03/M05 A3046 RMK AO2 SLP316
                 T10281053 11024 21031 55000 $ =

Support USWX by starting your Amazon purchase here.